Time;durP1;ratioP1;P1;durP2;ratioP2;P2;SDS_P1;SDS_P2;PMS_P1;PMS_P2;Temp;Humidity;BMP_temperature;BMP_pressure;BME280_temperature;BME280_humidity;BME280_pressure;Samples;Min_cycle;Max_cycle;Signal;HPM_P1;HPM_P2
2022/05/28 00:00:19;;;;;;;5.90;3.77;;;13.20;99.90;;;;;;5093273;28;20609;-86
2022/05/28 00:02:47;;;;;;;2.00;1.90;;;13.10;99.90;;;;;;5093323;28;20676;-85
2022/05/28 00:05:15;;;;;;;2.00;1.80;;;13.10;99.90;;;;;;5105886;28;20635;-85
2022/05/28 00:07:44;;;;;;;2.40;1.40;;;13.10;99.90;;;;;;5100352;28;20687;-85
2022/05/28 00:10:15;;;;;;;6.20;2.10;;;13.20;99.90;;;;;;5088604;28;20627;-86
2022/05/28 00:12:44;;;;;;;3.30;3.00;;;13.00;99.90;;;;;;5090208;28;20620;-85
2022/05/28 00:15:13;;;;;;;9.70;4.30;;;12.80;99.90;;;;;;5107336;28;21426;-87
2022/05/28 00:17:43;;;;;;;3.33;3.07;;;12.70;99.90;;;;;;5106486;28;20691;-85
2022/05/28 00:20:13;;;;;;;3.07;2.33;;;12.60;99.90;;;;;;5108136;28;20627;-85
2022/05/28 00:22:44;;;;;;;2.17;1.57;;;12.60;99.90;;;;;;5097048;28;20627;-85
2022/05/28 00:25:15;;;;;;;3.63;2.17;;;12.70;99.90;;;;;;5091539;28;20631;-85
2022/05/28 00:27:43;;;;;;;2.50;1.93;;;12.60;99.90;;;;;;5096872;28;20703;-85
2022/05/28 00:30:15;;;;;;;3.40;2.50;;;12.70;99.90;;;;;;5102332;28;20649;-87
2022/05/28 00:32:43;;;;;;;2.13;1.73;;;12.70;99.90;;;;;;5087986;28;20623;-85
2022/05/28 00:35:15;;;;;;;5.53;4.80;;;12.30;99.90;;;;;;5091585;28;20716;-85
2022/05/28 00:37:44;;;;;;;2.57;2.37;;;12.60;99.90;;;;;;5098503;28;20627;-85
2022/05/28 00:40:14;;;;;;;3.23;2.03;;;12.50;99.90;;;;;;5094677;28;20614;-83
2022/05/28 00:42:43;;;;;;;4.43;3.67;;;12.40;99.90;;;;;;5111716;27;20990;-85
2022/05/28 00:45:12;;;;;;;1.90;1.80;;;12.30;99.90;;;;;;5110084;27;20663;-85
2022/05/28 00:47:44;;;;;;;2.63;2.43;;;12.30;99.90;;;;;;5100542;28;20620;-85
2022/05/28 00:50:15;;;;;;;5.40;4.87;;;12.30;99.90;;;;;;5102437;28;20658;-88
2022/05/28 00:52:45;;;;;;;2.90;2.07;;;12.30;99.90;;;;;;5111221;28;20611;-85
2022/05/28 00:55:13;;;;;;;2.50;1.70;;;12.30;99.90;;;;;;5093321;28;20948;-85
2022/05/28 00:57:42;;;;;;;3.50;2.10;;;12.30;99.90;;;;;;5094811;28;21050;-85
2022/05/28 01:00:13;;;;;;;2.13;2.00;;;12.30;99.90;;;;;;5103751;28;21587;-84
2022/05/28 01:02:48;;;;;;;5.30;3.37;;;12.40;99.90;;;;;;5091119;28;21090;-85
2022/05/28 01:05:23;;;;;;;2.37;2.17;;;12.40;99.90;;;;;;5090466;28;20648;-87
2022/05/28 01:08:03;;;;;;;2.00;1.80;;;12.30;99.90;;;;;;5102418;28;20629;-85
2022/05/28 01:10:40;;;;;;;2.80;1.80;;;12.20;99.90;;;;;;5110021;28;20632;-85
2022/05/28 01:13:12;;;;;;;1.63;1.53;;;12.30;99.90;;;;;;5094058;28;20728;-85
2022/05/28 01:15:47;;;;;;;1.90;1.70;;;12.30;99.90;;;;;;5099732;28;21239;-85
2022/05/28 01:18:20;;;;;;;3.10;2.20;;;12.20;99.90;;;;;;5109727;28;20674;-85
2022/05/28 01:20:50;;;;;;;1.07;1.07;;;12.20;99.90;;;;;;5091083;28;21000;-86
2022/05/28 01:23:34;;;;;;;1.53;1.37;;;12.10;99.90;;;;;;5097015;28;20637;-86
2022/05/28 01:26:10;;;;;;;2.03;1.90;;;12.00;99.90;;;;;;5110688;28;21167;-86
2022/05/28 01:28:44;;;;;;;2.30;2.07;;;12.00;99.90;;;;;;5090349;28;20617;-86
2022/05/28 01:31:14;;;;;;;1.57;1.30;;;11.80;99.90;;;;;;5089512;28;20616;-87
2022/05/28 01:33:45;;;;;;;2.57;1.90;;;11.80;99.90;;;;;;5109137;28;20620;-87
2022/05/28 01:36:15;;;;;;;2.00;1.80;;;11.90;99.90;;;;;;5102191;28;21257;-87
2022/05/28 01:38:44;;;;;;;2.53;2.33;;;11.80;99.90;;;;;;5102588;28;20716;-88
2022/05/28 01:41:13;;;;;;;2.40;2.20;;;11.80;99.90;;;;;;5101980;28;20674;-88
2022/05/28 01:43:45;;;;;;;2.23;1.97;;;11.80;99.90;;;;;;5098597;28;21013;-87
2022/05/28 01:46:14;;;;;;;2.27;1.40;;;11.70;99.90;;;;;;5089165;28;20630;-87
2022/05/28 01:48:44;;;;;;;2.17;1.93;;;11.80;99.90;;;;;;5104205;28;20621;-87
2022/05/28 01:51:14;;;;;;;2.13;1.63;;;11.60;99.90;;;;;;5097187;28;21178;-87
2022/05/28 01:56:29;;;;;;;1.70;1.60;;;11.30;99.90;;;;;;5106780;28;20641;-87
2022/05/28 01:58:58;;;;;;;1.50;1.40;;;11.30;99.90;;;;;;5091390;28;20616;-87
2022/05/28 02:01:26;;;;;;;2.13;1.20;;;11.30;99.90;;;;;;5109988;28;21029;-87
2022/05/28 02:03:57;;;;;;;1.33;1.23;;;11.30;99.90;;;;;;5108060;28;20620;-86
2022/05/28 02:06:25;;;;;;;1.57;1.47;;;11.10;99.90;;;;;;5098855;28;20641;-87
2022/05/28 02:08:55;;;;;;;1.20;1.13;;;11.40;99.90;;;;;;5097260;28;21248;-87
2022/05/28 02:11:26;;;;;;;2.10;1.60;;;11.20;99.90;;;;;;5093304;28;20658;-87
2022/05/28 02:14:14;;;;;;;1.37;1.20;;;11.30;99.90;;;;;;5102235;27;20629;-86
2022/05/28 02:16:48;;;;;;;1.17;1.10;;;11.10;99.90;;;;;;5091056;28;20620;-86
2022/05/28 02:19:27;;;;;;;2.17;1.30;;;11.00;99.90;;;;;;5108988;28;20629;-86
2022/05/28 02:22:02;;;;;;;0.80;0.80;;;11.00;99.90;;;;;;5106461;28;20624;-86
2022/05/28 02:24:36;;;;;;;3.50;1.23;;;11.10;99.90;;;;;;5089661;28;20636;-87
2022/05/28 02:27:09;;;;;;;1.43;1.33;;;10.60;99.90;;;;;;5092734;28;21267;-85
2022/05/28 02:29:39;;;;;;;1.20;1.20;;;10.70;99.90;;;;;;5088436;28;21287;-85
2022/05/28 02:32:14;;;;;;;1.17;1.07;;;10.80;99.90;;;;;;5088425;28;20613;-86
2022/05/28 02:34:45;;;;;;;2.80;2.60;;;10.90;99.90;;;;;;5088454;28;20652;-85
2022/05/28 02:37:14;;;;;;;7.00;1.07;;;10.80;99.90;;;;;;5095916;28;20625;-85
2022/05/28 02:39:42;;;;;;;1.37;1.17;;;10.80;99.90;;;;;;5089044;28;20690;-86
2022/05/28 02:42:10;;;;;;;1.80;1.57;;;13.60;99.90;;;;;;5101800;28;20720;-84
2022/05/28 02:44:40;;;;;;;1.17;1.07;;;10.60;99.90;;;;;;5089888;28;20706;-85
2022/05/28 02:47:07;;;;;;;12.77;1.90;;;10.60;99.90;;;;;;5096446;28;20628;-85
2022/05/28 02:49:35;;;;;;;1.37;1.07;;;10.70;99.90;;;;;;5102709;28;20624;-85
2022/05/28 02:52:02;;;;;;;2.10;1.10;;;10.60;99.90;;;;;;5103484;28;20617;-84
2022/05/28 02:54:31;;;;;;;1.17;1.07;;;10.50;99.90;;;;;;5100583;28;20715;-85
2022/05/28 02:56:58;;;;;;;1.50;1.40;;;10.50;99.90;;;;;;5087242;28;20632;-85
2022/05/28 02:59:25;;;;;;;0.90;0.90;;;10.30;99.90;;;;;;5091763;28;20662;-84
2022/05/28 03:01:54;;;;;;;0.73;0.73;;;10.30;99.90;;;;;;5092228;28;20638;-85
2022/05/28 03:04:21;;;;;;;0.70;0.70;;;10.30;99.90;;;;;;5089932;28;20624;-85
2022/05/28 03:06:48;;;;;;;2.50;1.13;;;10.50;99.90;;;;;;5091176;28;20631;-84
2022/05/28 03:09:17;;;;;;;0.90;0.77;;;10.10;99.90;;;;;;5090523;28;21032;-85
2022/05/28 03:11:44;;;;;;;0.80;0.77;;;;;;;;;;5108667;28;20894;-84
2022/05/28 03:14:11;;;;;;;11.20;2.33;;;9.80;99.90;;;;;;5103678;28;20629;-84
2022/05/28 03:16:38;;;;;;;0.90;0.90;;;9.80;99.90;;;;;;5089285;28;20671;-85
2022/05/28 03:19:07;;;;;;;0.60;0.60;;;9.80;99.90;;;;;;5096258;28;20657;-84
2022/05/28 03:21:33;;;;;;;1.13;0.87;;;9.70;99.90;;;;;;5088394;28;20722;-84
2022/05/28 03:24:00;;;;;;;2.20;2.00;;;9.70;99.90;;;;;;5098895;28;20679;-85
2022/05/28 03:26:29;;;;;;;3.60;0.87;;;9.70;99.90;;;;;;5098943;28;20630;-84
2022/05/28 03:28:57;;;;;;;2.40;1.70;;;9.80;99.90;;;;;;5088300;28;20616;-85
2022/05/28 03:31:25;;;;;;;0.40;0.40;;;9.80;99.90;;;;;;5095658;28;21215;-85
2022/05/28 03:33:52;;;;;;;0.53;0.50;;;9.80;99.90;;;;;;5108222;28;20716;-85
2022/05/28 03:36:21;;;;;;;0.90;0.80;;;9.90;99.90;;;;;;5104904;28;20694;-84
2022/05/28 03:38:49;;;;;;;1.07;0.97;;;9.60;99.90;;;;;;5102594;28;20682;-84
2022/05/28 03:41:16;;;;;;;1.10;0.70;;;9.60;99.90;;;;;;5100969;28;21236;-84
2022/05/28 03:43:43;;;;;;;0.80;0.70;;;9.60;99.90;;;;;;5103884;28;20635;-85
2022/05/28 03:46:24;;;;;;;1.37;1.27;;;9.50;99.90;;;;;;5107640;28;20649;-84
2022/05/28 03:48:52;;;;;;;1.85;0.77;;;9.70;99.90;;;;;;5107060;28;21036;-84
2022/05/28 03:51:23;;;;;;;0.43;0.43;;;9.50;99.90;;;;;;5108732;28;20311;-84
2022/05/28 03:53:51;;;;;;;1.27;1.00;;;9.30;99.90;;;;;;5097950;28;20680;-84
2022/05/28 03:56:18;;;;;;;3.30;1.40;;;9.40;99.90;;;;;;5087241;28;20723;-84
2022/05/28 03:58:45;;;;;;;0.60;0.60;;;9.30;99.90;;;;;;5093527;28;20622;-84
2022/05/28 04:01:12;;;;;;;0.60;0.60;;;9.30;99.90;;;;;;5105423;28;20615;-84
2022/05/28 04:03:39;;;;;;;3.30;2.00;;;9.20;99.90;;;;;;5106261;28;20643;-85
2022/05/28 04:06:06;;;;;;;1.77;1.07;;;9.30;99.90;;;;;;5107524;28;20711;-84
2022/05/28 04:08:34;;;;;;;1.23;0.50;;;9.30;99.90;;;;;;5106293;28;20697;-84
2022/05/28 04:11:01;;;;;;;1.23;1.13;;;9.40;99.90;;;;;;5112074;28;20728;-84
2022/05/28 04:13:28;;;;;;;0.77;0.77;;;9.40;99.90;;;;;;5097862;28;20614;-85
2022/05/28 04:15:55;;;;;;;1.35;0.93;;;;;;;;;;5091392;28;21568;-85
2022/05/28 04:18:22;;;;;;;2.10;0.97;;;9.40;99.90;;;;;;5095160;28;21026;-83
2022/05/28 04:20:49;;;;;;;1.20;1.10;;;9.50;99.90;;;;;;5104522;28;20997;-84
2022/05/28 04:23:16;;;;;;;0.93;0.70;;;9.40;99.90;;;;;;5103527;28;20630;-85
2022/05/28 04:25:44;;;;;;;1.03;1.03;;;9.50;99.90;;;;;;5103138;28;20707;-84
2022/05/28 04:28:11;;;;;;;1.30;1.20;;;9.60;99.90;;;;;;5109976;28;20615;-84
2022/05/28 04:30:38;;;;;;;0.60;0.60;;;9.60;99.90;;;;;;5111608;28;20634;-84
2022/05/28 04:33:05;;;;;;;1.23;0.73;;;9.50;99.90;;;;;;5092383;28;20662;-84
2022/05/28 04:35:32;;;;;;;1.50;1.23;;;9.60;99.90;;;;;;5105821;28;20734;-85
2022/05/28 04:37:59;;;;;;;0.90;0.57;;;9.70;99.90;;;;;;5099604;28;20629;-84
2022/05/28 04:40:26;;;;;;;1.80;0.90;;;9.70;99.90;;;;;;5097429;28;20634;-84
2022/05/28 04:42:54;;;;;;;0.87;0.50;;;9.70;99.90;;;;;;5104601;28;20625;-84
2022/05/28 04:45:21;;;;;;;0.50;0.43;;;9.70;99.90;;;;;;5111250;28;20662;-84
2022/05/28 04:47:48;;;;;;;1.20;1.07;;;9.60;99.90;;;;;;5105428;28;20725;-84
2022/05/28 04:50:15;;;;;;;0.87;0.50;;;9.70;99.90;;;;;;5097948;28;20715;-84
2022/05/28 04:52:42;;;;;;;1.80;0.57;;;9.60;99.90;;;;;;5093098;28;20614;-84
2022/05/28 04:55:11;;;;;;;2.27;2.07;;;9.50;99.90;;;;;;5097314;28;20630;-84
2022/05/28 04:57:38;;;;;;;1.17;1.07;;;9.70;99.90;;;;;;5100351;28;20639;-84
2022/05/28 05:00:14;;;;;;;1.27;1.27;;;9.60;99.90;;;;;;5107602;28;20603;-84
2022/05/28 05:02:41;;;;;;;0.73;0.73;;;9.70;99.90;;;;;;5106531;28;20730;-84
2022/05/28 05:05:09;;;;;;;1.13;1.13;;;9.80;99.90;;;;;;5097339;28;20619;-84
2022/05/28 05:07:36;;;;;;;0.70;0.70;;;9.80;99.90;;;;;;5109679;28;20710;-84
2022/05/28 05:10:04;;;;;;;1.97;0.50;;;10.00;99.60;;;;;;5098643;28;20628;-84
2022/05/28 05:12:31;;;;;;;3.23;1.27;;;10.10;99.90;;;;;;5091470;28;20738;-84
2022/05/28 05:14:58;;;;;;;0.73;0.67;;;10.00;99.70;;;;;;5108757;28;21045;-84
2022/05/28 05:17:26;;;;;;;2.97;0.93;;;9.90;99.00;;;;;;5100861;28;20842;-85
2022/05/28 05:19:53;;;;;;;0.57;0.57;;;10.10;99.80;;;;;;5105238;27;21039;-84
2022/05/28 05:22:23;;;;;;;0.50;0.37;;;10.10;99.60;;;;;;5094804;28;20621;-84
2022/05/28 05:24:52;;;;;;;1.00;0.70;;;10.10;98.10;;;;;;5110307;28;20615;-85
2022/05/28 05:27:19;;;;;;;1.03;0.83;;;10.20;99.40;;;;;;5106277;28;20624;-85
2022/05/28 05:29:46;;;;;;;8.87;3.33;;;10.20;98.70;;;;;;5096730;28;20633;-84
2022/05/28 05:32:13;;;;;;;2.33;0.67;;;10.10;98.40;;;;;;5110386;28;20712;-85
2022/05/28 05:34:42;;;;;;;1.60;1.37;;;10.10;99.20;;;;;;5108635;28;20662;-85
2022/05/28 05:37:09;;;;;;;2.63;1.10;;;10.10;98.30;;;;;;5108701;28;20666;-85
2022/05/28 05:39:36;;;;;;;1.83;1.07;;;10.10;97.80;;;;;;5110622;28;20623;-86
2022/05/28 05:42:03;;;;;;;1.60;0.93;;;10.10;97.80;;;;;;5110201;28;20710;-85
2022/05/28 05:44:30;;;;;;;1.83;1.23;;;10.10;98.00;;;;;;5093057;28;20987;-83
2022/05/28 05:46:57;;;;;;;1.43;1.33;;;10.10;97.30;;;;;;5108278;28;21020;-84
2022/05/28 05:49:23;;;;;;;0.70;0.70;;;10.20;98.10;;;;;;5095800;28;20616;-85
2022/05/28 05:51:52;;;;;;;1.23;1.00;;;10.30;98.90;;;;;;5109834;28;21037;-84
2022/05/28 05:54:20;;;;;;;6.53;1.13;;;;;;;;;;5108704;28;20676;-85
2022/05/28 05:56:47;;;;;;;0.70;0.70;;;10.50;99.40;;;;;;5097974;28;20660;-85
2022/05/28 05:59:14;;;;;;;0.50;0.50;;;10.40;98.30;;;;;;5105983;28;20619;-84
2022/05/28 06:01:41;;;;;;;1.03;0.97;;;10.40;97.70;;;;;;5090266;28;21276;-86
2022/05/28 06:04:08;;;;;;;0.73;0.73;;;;;;;;;;5090513;28;20712;-85
2022/05/28 06:06:35;;;;;;;0.87;0.87;;;10.60;97.60;;;;;;5090696;28;20729;-85
2022/05/28 06:09:05;;;;;;;0.60;0.60;;;10.70;97.70;;;;;;5095399;28;20679;-84
2022/05/28 06:11:32;;;;;;;1.67;0.63;;;10.70;97.90;;;;;;5109287;28;20996;-85
2022/05/28 06:13:59;;;;;;;0.60;0.60;;;10.70;97.70;;;;;;5094909;28;20648;-85
2022/05/28 06:16:26;;;;;;;2.20;0.80;;;10.60;97.20;;;;;;5089188;28;20655;-84
2022/05/28 06:18:53;;;;;;;0.30;0.30;;;10.90;99.90;;;;;;5106611;28;20639;-85
2022/05/28 06:21:20;;;;;;;0.80;0.77;;;10.80;96.80;;;;;;5109713;28;20639;-84
2022/05/28 06:23:47;;;;;;;0.70;0.70;;;10.90;97.00;;;;;;5105751;28;20769;-85
2022/05/28 06:26:15;;;;;;;1.00;0.60;;;10.90;96.40;;;;;;5101709;28;21216;-85
2022/05/28 06:28:42;;;;;;;1.50;0.80;;;11.00;99.30;;;;;;5092469;28;20621;-85
2022/05/28 06:31:11;;;;;;;2.20;0.90;;;11.00;94.90;;;;;;5108479;28;20676;-84
2022/05/28 06:33:39;;;;;;;1.27;1.17;;;11.00;95.20;;;;;;5109450;28;20643;-85
2022/05/28 06:36:07;;;;;;;0.40;0.40;;;11.10;95.50;;;;;;5106346;28;20995;-85
2022/05/28 06:38:35;;;;;;;0.73;0.63;;;11.20;94.50;;;;;;5108784;28;20651;-86
2022/05/28 06:41:02;;;;;;;0.70;0.70;;;;;;;;;;5108819;28;20620;-85
2022/05/28 06:43:31;;;;;;;0.50;0.50;;;11.20;93.80;;;;;;5107242;28;20704;-85
2022/05/28 06:46:00;;;;;;;0.57;0.57;;;11.10;92.00;;;;;;5090511;28;20666;-84
2022/05/28 06:48:27;;;;;;;1.03;0.90;;;10.90;93.90;;;;;;5090133;28;21041;-85
2022/05/28 06:51:03;;;;;;;0.30;0.30;;;11.10;92.90;;;;;;5091572;28;20616;-85
2022/05/28 06:53:31;;;;;;;0.50;0.47;;;11.30;92.30;;;;;;5107322;28;20627;-85
2022/05/28 06:55:58;;;;;;;0.50;0.40;;;11.40;95.50;;;;;;5107350;28;20684;-85
2022/05/28 06:58:25;;;;;;;0.90;0.57;;;11.30;91.60;;;;;;5101406;28;20634;-85
2022/05/28 07:00:53;;;;;;;1.47;0.70;;;11.40;91.90;;;;;;5092659;28;20631;-85
2022/05/28 07:03:23;;;;;;;1.80;0.77;;;11.40;90.50;;;;;;5089730;28;20621;-85
2022/05/28 07:05:50;;;;;;;1.13;0.50;;;11.60;90.30;;;;;;5088454;28;20624;-85
2022/05/28 07:08:17;;;;;;;0.40;0.40;;;11.70;90.60;;;;;;5100046;28;20616;-85
2022/05/28 07:10:47;;;;;;;1.10;1.00;;;11.90;90.20;;;;;;5106986;28;21189;-85
2022/05/28 07:13:15;;;;;;;1.67;0.50;;;11.80;90.20;;;;;;5096084;28;21070;-85
2022/05/28 07:15:42;;;;;;;0.40;0.40;;;11.80;89.60;;;;;;5090682;28;20628;-85
2022/05/28 07:18:11;;;;;;;0.40;0.40;;;12.00;93.10;;;;;;5097976;28;20695;-85
2022/05/28 07:20:38;;;;;;;0.53;0.40;;;11.80;88.80;;;;;;5088004;28;20657;-85
2022/05/28 07:23:10;;;;;;;0.50;0.30;;;12.00;87.70;;;;;;5094306;28;20720;-84
2022/05/28 07:25:37;;;;;;;0.50;0.47;;;12.00;89.20;;;;;;5091306;28;20795;-84
2022/05/28 07:28:24;;;;;;;0.40;0.30;;;12.00;87.70;;;;;;5096093;28;20630;-86
2022/05/28 07:30:51;;;;;;;0.87;0.70;;;12.10;88.30;;;;;;5089774;28;20639;-85
2022/05/28 07:33:20;;;;;;;0.83;0.40;;;12.10;87.50;;;;;;5088571;28;20623;-87
2022/05/28 07:35:48;;;;;;;0.30;0.30;;;12.20;84.90;;;;;;5089383;28;21192;-86
2022/05/28 07:38:14;;;;;;;0.40;0.40;;;12.20;82.70;;;;;;5108012;28;20641;-86
2022/05/28 07:40:41;;;;;;;1.70;0.47;;;12.30;84.30;;;;;;5108560;28;20675;-85
2022/05/28 07:43:10;;;;;;;0.57;0.57;;;12.30;83.00;;;;;;5105586;28;20707;-85
2022/05/28 07:45:38;;;;;;;0.40;0.40;;;12.60;83.30;;;;;;5099894;28;20615;-87
2022/05/28 07:48:06;;;;;;;1.13;0.50;;;12.50;83.30;;;;;;5104585;28;20622;-85
2022/05/28 07:50:34;;;;;;;0.50;0.40;;;12.60;78.10;;;;;;5108102;28;20616;-86
2022/05/28 07:53:01;;;;;;;0.47;0.47;;;12.70;78.30;;;;;;5107521;28;20661;-86
2022/05/28 07:55:29;;;;;;;1.30;0.77;;;12.60;78.50;;;;;;5107188;28;20747;-85
2022/05/28 07:57:56;;;;;;;1.27;1.17;;;12.90;81.60;;;;;;5099822;28;20267;-86
2022/05/28 08:00:23;;;;;;;0.30;0.20;;;12.80;79.60;;;;;;5100258;28;20623;-85
2022/05/28 08:02:50;;;;;;;0.60;0.60;;;12.80;79.60;;;;;;5093984;28;20677;-85
2022/05/28 08:05:17;;;;;;;0.50;0.50;;;;;;;;;;5106683;28;20664;-85
2022/05/28 08:07:46;;;;;;;0.77;0.77;;;13.10;78.00;;;;;;5107704;28;20614;-85
2022/05/28 08:10:13;;;;;;;0.50;0.50;;;13.10;75.50;;;;;;5107310;28;20730;-85
2022/05/28 08:12:39;;;;;;;1.27;0.40;;;12.90;75.00;;;;;;5102050;28;21059;-84
2022/05/28 08:15:08;;;;;;;0.30;0.20;;;13.10;76.20;;;;;;5108285;28;20654;-84
2022/05/28 08:17:35;;;;;;;1.83;0.73;;;13.60;76.30;;;;;;5097700;28;20699;-85
2022/05/28 08:20:02;;;;;;;0.60;0.60;;;13.70;76.80;;;;;;5088318;28;21124;-85
2022/05/28 08:25:15;;;;;;;0.60;0.47;;;13.90;75.80;;;;;;5097734;28;20704;-86
2022/05/28 08:27:42;;;;;;;0.53;0.53;;;14.00;77.80;;;;;;5099045;28;20617;-85
2022/05/28 08:30:10;;;;;;;0.50;0.50;;;14.00;75.50;;;;;;5095777;28;20705;-86
2022/05/28 08:32:37;;;;;;;0.50;0.30;;;14.20;77.00;;;;;;5087668;28;20644;-86
2022/05/28 08:35:05;;;;;;;0.70;0.40;;;14.10;73.60;;;;;;5088519;28;20723;-86
2022/05/28 08:37:31;;;;;;;0.43;0.33;;;14.30;73.70;;;;;;5101360;28;20764;-86
2022/05/28 08:39:58;;;;;;;0.50;0.40;;;14.40;73.20;;;;;;5101324;28;20677;-85
2022/05/28 08:42:28;;;;;;;0.90;0.90;;;14.20;70.10;;;;;;5106843;28;20672;-85
2022/05/28 08:44:57;;;;;;;3.83;0.47;;;14.10;71.00;;;;;;5087743;28;21356;-86
2022/05/28 08:47:28;;;;;;;0.50;0.30;;;13.90;72.20;;;;;;5099654;28;20723;-86
2022/05/28 08:49:55;;;;;;;0.40;0.40;;;13.90;71.60;;;;;;5103416;28;20696;-87
2022/05/28 08:52:27;;;;;;;0.90;0.63;;;14.00;71.20;;;;;;5091381;28;20631;-84
2022/05/28 08:55:00;;;;;;;1.33;1.23;;;14.40;74.20;;;;;;5109152;28;20720;-85
2022/05/28 08:57:43;;;;;;;1.07;0.70;;;14.70;71.20;;;;;;5109778;28;20670;-84
2022/05/28 09:00:14;;;;;;;1.53;0.50;;;14.70;71.60;;;;;;5105099;28;20623;-85
2022/05/28 09:02:44;;;;;;;1.37;0.40;;;14.80;72.10;;;;;;5110121;28;20762;-85
2022/05/28 09:05:21;;;;;;;1.73;0.40;;;14.50;69.00;;;;;;5110723;28;20628;-85
2022/05/28 09:07:48;;;;;;;0.40;0.40;;;14.50;71.10;;;;;;5099198;28;20715;-85
2022/05/28 09:10:15;;;;;;;0.40;0.30;;;14.60;72.80;;;;;;5096313;28;20734;-85
2022/05/28 09:12:47;;;;;;;0.83;0.30;;;14.70;75.70;;;;;;5111156;27;20627;-84
2022/05/28 09:15:14;;;;;;;1.10;1.00;;;15.10;71.50;;;;;;5101398;28;21222;-84
2022/05/28 09:17:44;;;;;;;0.40;0.40;;;15.20;71.70;;;;;;5096595;28;20766;-84
2022/05/28 09:20:15;;;;;;;1.00;0.63;;;15.20;72.40;;;;;;5109701;28;20627;-85
2022/05/28 09:22:42;;;;;;;1.07;0.50;;;14.80;70.40;;;;;;5090842;28;20673;-85
2022/05/28 09:25:12;;;;;;;0.40;0.33;;;14.80;71.00;;;;;;5106224;28;20742;-86
2022/05/28 09:27:51;;;;;;;0.40;0.30;;;14.60;71.10;;;;;;5090439;28;20737;-85
2022/05/28 09:30:35;;;;;;;0.47;0.47;;;15.10;73.10;;;;;;5098108;28;20623;-87
2022/05/28 09:33:25;;;;;;;0.67;0.40;;;15.10;73.40;;;;;;5090260;28;20616;-85
2022/05/28 09:36:05;;;;;;;0.97;0.40;;;15.60;68.30;;;;;;5091949;28;20711;-86
2022/05/28 09:38:44;;;;;;;0.30;0.27;;;16.20;68.60;;;;;;5094157;28;20671;-85
2022/05/28 09:41:37;;;;;;;0.70;0.53;;;15.60;69.30;;;;;;5101549;28;20627;-86
2022/05/28 09:44:16;;;;;;;0.30;0.30;;;16.00;72.20;;;;;;5093935;27;21412;-85
2022/05/28 09:46:45;;;;;;;0.50;0.40;;;15.70;68.70;;;;;;5096748;28;20751;-84
2022/05/28 09:49:13;;;;;;;4.50;1.27;;;15.90;64.60;;;;;;5107257;27;20285;-84
2022/05/28 09:51:53;;;;;;;0.37;0.37;;;15.90;66.40;;;;;;5093684;28;20629;-84
2022/05/28 09:54:27;;;;;;;0.77;0.73;;;15.90;64.10;;;;;;5091613;28;20663;-85
2022/05/28 09:56:59;;;;;;;0.40;0.30;;;16.20;67.90;;;;;;5100989;28;20730;-85
2022/05/28 09:59:34;;;;;;;0.40;0.40;;;16.20;64.30;;;;;;5110395;28;20616;-85
2022/05/28 10:02:11;;;;;;;0.80;0.80;;;16.00;66.80;;;;;;5108727;28;20607;-84
2022/05/28 10:04:46;;;;;;;0.60;0.60;;;15.40;71.70;;;;;;5108152;28;20677;-85
2022/05/28 10:07:13;;;;;;;0.60;0.50;;;15.60;65.30;;;;;;5106358;28;20623;-86
2022/05/28 10:09:50;;;;;;;1.37;0.60;;;16.00;62.40;;;;;;5093851;28;20632;-84
2022/05/28 10:12:22;;;;;;;0.80;0.60;;;16.20;70.50;;;;;;5105375;28;20615;-84
2022/05/28 10:15:01;;;;;;;0.40;0.30;;;16.30;66.70;;;;;;5103080;28;20723;-85
2022/05/28 10:17:30;;;;;;;0.70;0.40;;;16.40;61.80;;;;;;5090930;28;21091;-85
2022/05/28 10:20:00;;;;;;;0.97;0.57;;;16.50;61.60;;;;;;5097249;28;20617;-85
2022/05/28 10:22:28;;;;;;;0.50;0.40;;;16.30;63.30;;;;;;5104718;28;20627;-84
2022/05/28 10:25:00;;;;;;;0.63;0.40;;;16.90;62.10;;;;;;5093416;28;20692;-85
2022/05/28 10:27:34;;;;;;;4.10;0.60;;;16.80;59.20;;;;;;5102375;28;21169;-85
2022/05/28 10:30:07;;;;;;;1.43;0.63;;;16.90;63.10;;;;;;5097069;28;21130;-85
2022/05/28 10:32:38;;;;;;;0.47;0.33;;;17.30;63.30;;;;;;5090533;28;20616;-86
2022/05/28 10:35:14;;;;;;;0.37;0.33;;;16.50;62.60;;;;;;5089615;28;20656;-85
2022/05/28 10:37:42;;;;;;;0.33;0.30;;;16.40;61.50;;;;;;5097751;28;20674;-85
2022/05/28 10:40:17;;;;;;;0.70;0.33;;;16.70;61.80;;;;;;5092715;28;20612;-85
2022/05/28 10:42:44;;;;;;;0.37;0.37;;;16.50;59.20;;;;;;5108136;28;20615;-84
2022/05/28 10:45:17;;;;;;;0.50;0.40;;;16.60;61.40;;;;;;5100054;28;20694;-84
2022/05/28 10:48:10;;;;;;;0.60;0.50;;;16.00;61.60;;;;;;5094825;28;20626;-84
2022/05/28 10:50:46;;;;;;;0.77;0.60;;;15.90;61.20;;;;;;5096822;28;21040;-85
2022/05/28 10:53:23;;;;;;;1.03;0.60;;;15.30;63.90;;;;;;5099783;28;20688;-85
2022/05/28 10:56:06;;;;;;;2.00;0.70;;;15.40;66.30;;;;;;5092543;28;21346;-87
2022/05/28 10:58:49;;;;;;;2.90;0.90;;;15.50;65.00;;;;;;5088481;28;20665;-85
2022/05/28 11:01:36;;;;;;;0.60;0.40;;;15.60;65.90;;;;;;5088462;28;20666;-85
2022/05/28 11:04:30;;;;;;;0.70;0.63;;;16.00;66.40;;;;;;5088553;28;20979;-86
2022/05/28 11:07:22;;;;;;;0.70;0.67;;;16.30;63.50;;;;;;5088243;28;20632;-86
2022/05/28 11:10:03;;;;;;;0.70;0.60;;;16.70;62.30;;;;;;5092993;28;20819;-84
2022/05/28 11:13:00;;;;;;;0.40;0.40;;;16.70;59.50;;;;;;5089914;28;20205;-86
2022/05/28 11:15:58;;;;;;;0.40;0.40;;;16.10;61.00;;;;;;5088698;28;20656;-84
2022/05/28 11:18:56;;;;;;;0.77;0.30;;;16.30;63.70;;;;;;5097525;28;20727;-85
2022/05/28 11:21:38;;;;;;;0.87;0.87;;;16.60;62.60;;;;;;5107474;28;21038;-85
2022/05/28 11:24:18;;;;;;;0.43;0.40;;;17.00;62.00;;;;;;5099522;28;20800;-85
2022/05/28 11:26:57;;;;;;;0.60;0.50;;;16.90;60.20;;;;;;5091561;28;20280;-85
2022/05/28 11:29:50;;;;;;;0.40;0.40;;;16.50;58.90;;;;;;5104922;28;20599;-86
2022/05/28 11:32:23;;;;;;;0.40;0.30;;;16.70;58.80;;;;;;5096412;28;20648;-86
2022/05/28 11:34:56;;;;;;;0.40;0.40;;;16.80;59.50;;;;;;5106385;28;21267;-86
2022/05/28 11:37:29;;;;;;;0.50;0.43;;;17.50;61.80;;;;;;5105713;28;20692;-87
2022/05/28 11:40:00;;;;;;;0.60;0.60;;;17.40;60.90;;;;;;5102216;28;21091;-87
2022/05/28 11:42:36;;;;;;;2.13;0.30;;;17.90;58.20;;;;;;5106653;28;21018;-85
2022/05/28 11:45:07;;;;;;;0.53;0.50;;;18.40;57.60;;;;;;5088179;28;20629;-85
2022/05/28 11:47:43;;;;;;;0.60;0.40;;;18.50;56.70;;;;;;5096036;28;20715;-87
2022/05/28 11:53:15;;;;;;;0.50;0.30;;;18.10;54.20;;;;;;5107641;28;20710;-85
2022/05/28 11:55:44;;;;;;;0.50;0.50;;;18.70;56.90;;;;;;5107908;28;20628;-87
2022/05/28 11:58:16;;;;;;;0.60;0.60;;;19.60;56.00;;;;;;5105124;28;20647;-86
2022/05/28 12:00:47;;;;;;;0.53;0.50;;;20.50;53.50;;;;;;5108155;28;21507;-86
2022/05/28 12:03:18;;;;;;;0.63;0.40;;;21.10;54.20;;;;;;5105391;28;20685;-87
2022/05/28 12:05:50;;;;;;;0.93;0.40;;;21.40;50.40;;;;;;5107020;28;21086;-86
2022/05/28 12:08:29;;;;;;;0.40;0.40;;;22.30;50.90;;;;;;5098849;28;21209;-85
2022/05/28 12:10:59;;;;;;;1.53;0.67;;;22.70;49.40;;;;;;5107964;28;20620;-86
2022/05/28 12:13:34;;;;;;;0.33;0.33;;;22.80;48.20;;;;;;5095991;28;20724;-85
2022/05/28 12:16:09;;;;;;;0.70;0.50;;;21.60;48.80;;;;;;5087427;28;20765;-85
2022/05/28 12:18:38;;;;;;;0.50;0.50;;;22.30;51.70;;;;;;5097191;28;20660;-85
2022/05/28 12:21:06;;;;;;;0.80;0.70;;;22.80;46.70;;;;;;5107854;28;20692;-87
2022/05/28 12:23:35;;;;;;;0.40;0.40;;;22.00;47.20;;;;;;5094083;28;20682;-85
2022/05/28 12:26:15;;;;;;;0.70;0.70;;;21.20;47.70;;;;;;5099884;28;20616;-86
2022/05/28 12:28:49;;;;;;;1.17;0.60;;;21.50;50.60;;;;;;5092837;28;20620;-86
2022/05/28 12:31:24;;;;;;;0.50;0.50;;;22.30;48.60;;;;;;5109245;28;20995;-86
2022/05/28 12:33:54;;;;;;;0.60;0.40;;;22.10;48.60;;;;;;5111576;28;20651;-86
2022/05/28 12:36:28;;;;;;;4.33;1.07;;;22.00;48.70;;;;;;5109838;28;20615;-87
2022/05/28 12:39:03;;;;;;;0.60;0.53;;;20.70;47.20;;;;;;5097195;28;21012;-85
2022/05/28 12:41:32;;;;;;;0.70;0.60;;;19.50;48.50;;;;;;5105859;28;21191;-85
2022/05/28 12:44:03;;;;;;;0.80;0.63;;;19.40;49.30;;;;;;5098077;28;20720;-85
2022/05/28 12:46:43;;;;;;;0.47;0.40;;;18.70;50.90;;;;;;5110118;28;20975;-85
2022/05/28 12:49:13;;;;;;;0.90;0.67;;;18.70;51.10;;;;;;5094175;27;20692;-86
2022/05/28 12:52:24;;;;;;;0.57;0.53;;;18.70;52.00;;;;;;5107867;28;21031;-84
2022/05/28 12:55:01;;;;;;;0.60;0.50;;;19.20;52.50;;;;;;5070085;28;20638;-85
2022/05/28 12:57:33;;;;;;;0.30;0.30;;;19.20;51.10;;;;;;5090291;28;20742;-84
2022/05/28 13:00:04;;;;;;;0.50;0.50;;;19.70;53.00;;;;;;5089460;28;21062;-85
2022/05/28 13:02:35;;;;;;;0.50;0.50;;;20.10;51.20;;;;;;5090705;28;20720;-85
2022/05/28 13:05:09;;;;;;;0.53;0.53;;;21.60;49.10;;;;;;5090196;28;20651;-87
2022/05/28 13:07:44;;;;;;;0.40;0.40;;;22.30;47.40;;;;;;5091016;28;20632;-85
2022/05/28 13:10:17;;;;;;;0.73;0.67;;;22.10;47.40;;;;;;5090843;28;20631;-85
2022/05/28 13:12:50;;;;;;;0.53;0.53;;;21.60;49.00;;;;;;5091218;28;20616;-85
2022/05/28 13:15:54;;;;;;;0.50;0.50;;;21.30;49.90;;;;;;5090536;28;20623;-83
2022/05/28 13:18:47;;;;;;;0.83;0.60;;;22.50;51.70;;;;;;5072940;28;20667;-85